createdAt,value
2019-03-01T00:01:59.226Z,2.57
2019-03-01T00:04:34.533Z,2.80
2019-03-01T00:07:40.450Z,2.57
2019-03-01T00:10:34.551Z,2.83
2019-03-01T00:13:24.004Z,3.00
2019-03-01T00:16:11.703Z,2.53
2019-03-01T00:18:50.338Z,2.90
2019-03-01T00:21:25.769Z,2.90
2019-03-01T00:24:09.807Z,2.80
2019-03-01T00:26:45.356Z,3.03
2019-03-01T00:29:38.492Z,2.83
2019-03-01T00:32:19.799Z,3.13
2019-03-01T00:35:18.206Z,3.00
2019-03-01T00:37:53.672Z,2.87
2019-03-01T00:40:32.140Z,2.73
2019-03-01T00:43:04.837Z,2.87
2019-03-01T00:45:34.465Z,2.80
2019-03-01T00:48:04.132Z,2.90
2019-03-01T00:50:33.750Z,2.40
2019-03-01T00:53:03.432Z,2.67
2019-03-01T00:55:33.087Z,2.50
2019-03-01T00:58:02.730Z,2.83
2019-03-01T01:00:38.418Z,3.07
2019-03-01T01:03:08.043Z,2.80
2019-03-01T01:05:37.701Z,3.10
2019-03-01T01:08:07.353Z,3.10
2019-03-01T01:10:37.080Z,3.13
2019-03-01T01:13:06.698Z,3.90
2019-03-01T01:15:36.369Z,3.40
2019-03-01T01:18:06.087Z,3.40
2019-03-01T01:20:35.721Z,3.17
2019-03-01T01:23:05.350Z,2.70
2019-03-01T01:25:40.137Z,3.07
2019-03-01T01:28:09.804Z,3.17
2019-03-01T01:30:39.496Z,3.13
2019-03-01T01:33:09.132Z,2.93
2019-03-01T01:35:38.773Z,3.30
2019-03-01T01:38:08.396Z,3.30
2019-03-01T01:40:38.043Z,2.90
2019-03-01T01:43:07.699Z,3.27
2019-03-01T01:45:37.406Z,2.87
2019-03-01T01:48:07.043Z,3.13
2019-03-01T01:50:36.677Z,3.00
2019-03-01T01:53:06.312Z,2.87
2019-03-01T01:55:35.970Z,2.93
2019-03-01T01:58:05.605Z,3.10
2019-03-01T02:00:35.402Z,2.70
2019-03-01T02:03:05.124Z,3.00
2019-03-01T02:05:34.768Z,3.20
2019-03-01T02:08:04.417Z,2.67
2019-03-01T02:10:35.599Z,2.77
2019-03-01T02:13:05.380Z,2.90
2019-03-01T02:15:35.067Z,2.90
2019-03-01T02:18:05.047Z,3.20
2019-03-01T02:20:34.683Z,3.30
2019-03-01T02:23:04.323Z,3.77
2019-03-01T02:25:35.792Z,2.77
2019-03-01T02:28:05.424Z,3.17
2019-03-01T02:30:42.903Z,2.90
2019-03-01T02:33:12.549Z,3.40
2019-03-01T02:35:42.506Z,3.40
2019-03-01T02:38:12.261Z,3.13
2019-03-01T02:40:41.906Z,2.80
2019-03-01T02:43:11.590Z,3.47
2019-03-01T02:45:41.320Z,2.93
2019-03-01T02:48:10.957Z,3.10
2019-03-01T02:50:40.625Z,2.47
2019-03-01T02:53:10.293Z,2.70
2019-03-01T02:55:39.916Z,3.00
2019-03-01T02:58:09.584Z,2.90
2019-03-01T03:00:39.222Z,2.97
2019-03-01T03:03:08.935Z,3.47
2019-03-01T03:05:40.227Z,2.97
2019-03-01T03:08:11.135Z,2.80
2019-03-01T03:10:40.926Z,2.57
2019-03-01T03:13:10.770Z,3.00
2019-03-01T03:15:42.416Z,2.77
2019-03-01T03:18:12.339Z,2.93
2019-03-01T03:20:42.153Z,2.60
2019-03-01T03:23:12.008Z,2.80
2019-03-01T03:25:42.273Z,2.87
2019-03-01T03:28:12.017Z,2.73
2019-03-01T03:30:41.697Z,2.57
2019-03-01T03:33:11.393Z,3.33
2019-03-01T03:35:41.029Z,2.50
2019-03-01T03:38:10.688Z,2.77
2019-03-01T03:40:41.366Z,2.57
2019-03-01T03:43:11.012Z,2.50
2019-03-01T03:45:40.654Z,2.30
2019-03-01T03:48:11.138Z,2.63
2019-03-01T03:50:40.833Z,2.43
2019-03-01T03:53:10.475Z,2.40
2019-03-01T03:55:40.149Z,2.57
2019-03-01T03:58:09.749Z,2.27
2019-03-01T04:00:39.382Z,3.13
2019-03-01T04:03:09.345Z,2.40
2019-03-01T04:05:39.057Z,2.00
2019-03-01T04:08:08.775Z,2.60
2019-03-01T04:10:38.435Z,2.33
2019-03-01T04:13:08.116Z,2.37
2019-03-01T04:15:40.776Z,2.70
2019-03-01T04:18:10.459Z,2.50
2019-03-01T04:20:40.112Z,2.83
2019-03-01T04:23:09.784Z,2.50
2019-03-01T04:25:39.438Z,2.60
2019-03-01T04:28:09.080Z,2.10
2019-03-01T04:30:38.799Z,2.40
2019-03-01T04:33:08.436Z,2.47
2019-03-01T04:35:38.059Z,2.13
2019-03-01T04:38:07.771Z,2.80
2019-03-01T04:40:37.479Z,2.83
2019-03-01T04:43:07.147Z,2.60
2019-03-01T04:45:36.783Z,2.10
2019-03-01T04:48:06.484Z,2.13
2019-03-01T04:50:36.074Z,2.20
2019-03-01T04:53:05.758Z,2.73
2019-03-01T04:55:35.398Z,2.80
2019-03-01T04:58:05.126Z,2.20
2019-03-01T05:00:34.805Z,2.50
2019-03-01T05:03:04.806Z,2.33
2019-03-01T05:05:34.499Z,2.43
2019-03-01T05:08:04.176Z,2.57
2019-03-01T05:10:33.856Z,2.23
2019-03-01T05:13:03.488Z,2.60
2019-03-01T05:15:33.160Z,2.40
2019-03-01T05:18:02.787Z,2.30
2019-03-01T05:20:32.429Z,3.13
2019-03-01T05:23:02.132Z,2.63
2019-03-01T05:25:31.814Z,2.67
2019-03-01T05:28:01.504Z,2.83
2019-03-01T05:30:31.121Z,3.30
2019-03-01T05:33:00.812Z,2.70
2019-03-01T05:35:30.488Z,2.53
2019-03-01T05:38:00.114Z,3.10
2019-03-01T05:40:35.447Z,2.67
2019-03-01T05:43:05.121Z,2.63
2019-03-01T05:45:34.762Z,2.53
2019-03-01T05:48:04.402Z,3.13
2019-03-01T05:50:34.050Z,2.70
2019-03-01T05:53:03.704Z,2.50
2019-03-01T05:55:33.491Z,2.97
2019-03-01T05:58:31.835Z,3.23
2019-03-01T06:01:07.481Z,2.97
2019-03-01T06:03:49.038Z,2.80
2019-03-01T06:06:36.527Z,3.30
2019-03-01T06:09:24.322Z,2.63
2019-03-01T06:12:19.933Z,2.83
2019-03-01T06:15:24.705Z,2.87
2019-03-01T06:18:27.753Z,2.67
2019-03-01T06:21:18.418Z,3.20
2019-03-01T06:24:10.660Z,2.83
2019-03-01T06:27:06.196Z,3.83
2019-03-01T06:29:38.945Z,2.63
2019-03-01T06:32:30.088Z,2.63
2019-03-01T06:35:11.805Z,2.77
2019-03-01T06:38:04.023Z,3.00
2019-03-01T06:40:47.048Z,2.80
2019-03-01T06:43:31.666Z,3.10
2019-03-01T06:46:10.388Z,2.40
2019-03-01T06:48:47.510Z,2.57
2019-03-01T06:51:28.374Z,3.47
2019-03-01T06:53:50.219Z,3.67
2019-03-01T06:56:21.571Z,3.13
2019-03-01T06:58:51.247Z,2.87
2019-03-01T07:01:22.663Z,3.40
2019-03-01T07:03:53.579Z,3.20
2019-03-01T07:06:23.228Z,3.33
2019-03-01T07:08:52.925Z,2.90
2019-03-01T07:11:22.607Z,3.90
2019-03-01T07:13:52.275Z,3.27
2019-03-01T07:16:21.965Z,2.43
2019-03-01T07:18:51.646Z,2.90
2019-03-01T07:21:21.373Z,2.87
2019-03-01T07:23:51.278Z,2.97
2019-03-01T07:26:21.243Z,2.77
2019-03-01T07:28:50.945Z,2.30
2019-03-01T07:31:20.792Z,2.73
2019-03-01T07:33:50.553Z,2.80
2019-03-01T07:36:20.289Z,2.50
2019-03-01T07:38:49.961Z,2.30
2019-03-01T07:41:19.783Z,2.50
2019-03-01T07:43:49.495Z,2.50
2019-03-01T07:46:19.335Z,2.37
2019-03-01T07:48:49.056Z,2.60
2019-03-01T07:51:18.725Z,2.60
2019-03-01T07:53:48.407Z,2.50
2019-03-01T07:56:18.100Z,2.63
2019-03-01T07:58:47.850Z,2.70
2019-03-01T08:01:17.700Z,2.87
2019-03-01T08:03:52.274Z,2.50
2019-03-01T08:06:18.858Z,2.70
2019-03-01T08:08:48.633Z,2.20
2019-03-01T08:11:18.389Z,2.93
2019-03-01T08:13:49.420Z,2.97
2019-03-01T08:16:20.167Z,2.80
2019-03-01T08:18:51.213Z,13.60
2019-03-01T08:21:21.035Z,2.50
2019-03-01T08:23:50.852Z,3.00
2019-03-01T08:26:20.643Z,2.80
2019-03-01T08:28:50.420Z,2.50
2019-03-01T08:31:20.971Z,3.10
2019-03-01T08:33:51.911Z,2.80
2019-03-01T08:36:21.701Z,2.80
2019-03-01T08:38:51.427Z,3.37
2019-03-01T08:41:21.613Z,3.37
2019-03-01T08:43:52.660Z,3.23
2019-03-01T08:46:22.394Z,2.73
2019-03-01T08:48:52.087Z,3.00
2019-03-01T08:51:22.780Z,3.60
2019-03-01T08:53:53.339Z,2.83
2019-03-01T08:56:26.177Z,3.20
2019-03-01T08:58:54.672Z,4.53
2019-03-01T09:01:25.979Z,3.53
2019-03-01T09:04:07.256Z,3.50
2019-03-01T09:06:37.033Z,4.30
2019-03-01T09:09:08.596Z,4.47
2019-03-01T09:11:41.761Z,2.63
2019-03-01T09:14:10.094Z,2.50
2019-03-01T09:16:41.064Z,2.90
2019-03-01T09:19:11.058Z,3.20
2019-03-01T09:21:40.780Z,2.70
2019-03-01T09:24:10.519Z,2.50
2019-03-01T09:26:40.290Z,2.73
2019-03-01T09:29:12.996Z,2.30
2019-03-01T09:31:41.525Z,3.00
2019-03-01T09:34:11.277Z,2.60
2019-03-01T09:36:42.681Z,2.43
2019-03-01T09:39:14.433Z,3.23
2019-03-01T09:41:43.967Z,2.30
2019-03-01T09:44:13.703Z,3.27
2019-03-01T09:46:43.447Z,3.50
2019-03-01T09:49:13.172Z,2.90
2019-03-01T09:51:43.703Z,2.50
2019-03-01T09:54:14.497Z,2.40
2019-03-01T09:56:44.524Z,2.60
2019-03-01T09:59:14.474Z,2.67
2019-03-01T10:01:44.173Z,2.87
2019-03-01T10:04:13.869Z,2.87
2019-03-01T10:06:43.754Z,2.60
2019-03-01T10:09:13.550Z,3.30
2019-03-01T10:11:43.276Z,2.80
2019-03-01T10:14:13.005Z,2.77
2019-03-01T10:16:42.734Z,2.63
2019-03-01T10:19:12.573Z,2.70
2019-03-01T10:21:42.391Z,3.13
2019-03-01T10:24:12.246Z,2.53
2019-03-01T10:26:41.994Z,3.27
2019-03-01T10:29:11.822Z,2.70
2019-03-01T10:31:42.137Z,2.63
2019-03-01T10:34:11.864Z,4.93
2019-03-01T10:36:41.602Z,4.53
2019-03-01T10:39:13.454Z,7.13
2019-03-01T10:41:43.259Z,3.73
2019-03-01T10:44:13.036Z,2.70
2019-03-01T10:46:42.863Z,2.80
2019-03-01T10:49:12.705Z,3.23
2019-03-01T10:51:42.462Z,4.13
2019-03-01T10:54:12.241Z,2.33
2019-03-01T10:56:41.996Z,2.67
2019-03-01T10:59:11.735Z,2.60
2019-03-01T11:01:41.466Z,2.40
2019-03-01T11:04:11.184Z,2.83
2019-03-01T11:06:41.127Z,3.10
2019-03-01T11:09:10.890Z,3.13
2019-03-01T11:11:41.267Z,3.60
2019-03-01T11:14:11.183Z,3.43
2019-03-01T11:16:40.867Z,2.93
2019-03-01T11:19:10.609Z,3.17
2019-03-01T11:21:40.336Z,3.47
2019-03-01T11:24:10.090Z,3.40
2019-03-01T11:26:39.751Z,3.03
2019-03-01T11:29:09.513Z,3.10
2019-03-01T11:31:39.189Z,3.27
2019-03-01T11:34:08.958Z,2.93
2019-03-01T11:36:38.625Z,3.03
2019-03-01T11:39:08.831Z,3.07
2019-03-01T11:41:38.759Z,3.60
2019-03-01T11:44:08.694Z,2.67
2019-03-01T11:46:38.517Z,3.23
2019-03-01T11:49:08.308Z,3.20
2019-03-01T11:51:37.967Z,2.97
2019-03-01T11:54:09.494Z,3.40
2019-03-01T11:56:39.212Z,3.10
2019-03-01T11:59:08.933Z,3.17
2019-03-01T12:01:38.682Z,3.43
2019-03-01T12:04:08.406Z,4.20
2019-03-01T12:06:38.128Z,2.97
2019-03-01T12:09:08.159Z,3.80
2019-03-01T12:11:37.974Z,3.60
2019-03-01T12:14:07.755Z,3.20
2019-03-01T12:16:37.452Z,3.70
2019-03-01T12:19:07.220Z,3.33
2019-03-01T12:21:36.961Z,3.47
2019-03-01T12:24:06.792Z,3.30
2019-03-01T12:26:36.435Z,3.87
2019-03-01T12:29:08.633Z,3.67
2019-03-01T12:31:38.627Z,3.00
2019-03-01T12:34:08.291Z,3.40
2019-03-01T12:36:38.042Z,3.50
2019-03-01T12:39:09.921Z,3.93
2019-03-01T12:41:39.932Z,3.50
2019-03-01T12:44:09.804Z,3.73
2019-03-01T12:46:39.505Z,3.63
2019-03-01T12:49:09.194Z,4.10
2019-03-01T12:51:38.975Z,3.80
2019-03-01T12:54:08.643Z,3.37
2019-03-01T12:56:38.327Z,3.53
2019-03-01T12:59:07.983Z,3.50
2019-03-01T13:01:37.723Z,3.57
2019-03-01T13:04:07.475Z,3.63
2019-03-01T13:06:38.926Z,4.00
2019-03-01T13:09:11.934Z,3.53
2019-03-01T13:11:41.641Z,3.03
2019-03-01T13:14:11.625Z,3.40
2019-03-01T13:16:41.438Z,3.50
2019-03-01T13:19:11.181Z,3.30
2019-03-01T13:21:41.330Z,3.00
2019-03-01T13:24:12.681Z,3.90
2019-03-01T13:26:43.016Z,3.57
2019-03-01T13:29:12.698Z,4.13
2019-03-01T13:31:43.968Z,3.90
2019-03-01T13:34:14.496Z,3.33
2019-03-01T13:36:44.259Z,3.20
2019-03-01T13:39:13.978Z,3.93
2019-03-01T13:41:43.724Z,3.40
2019-03-01T13:44:13.407Z,3.57
2019-03-01T13:46:43.149Z,3.70
2019-03-01T13:49:12.882Z,3.40
2019-03-01T13:51:43.137Z,3.40
2019-03-01T13:54:12.922Z,3.87
2019-03-01T13:56:42.654Z,3.27
2019-03-01T13:59:12.332Z,3.90
2019-03-01T14:01:42.053Z,4.50
2019-03-01T14:04:11.758Z,3.67
2019-03-01T14:06:41.493Z,3.10
2019-03-01T14:09:12.590Z,3.00
2019-03-01T14:11:42.423Z,3.87
2019-03-01T14:14:12.111Z,3.00
2019-03-01T14:16:41.852Z,3.17
2019-03-01T14:19:11.635Z,3.80
2019-03-01T14:21:41.336Z,3.27
2019-03-01T14:24:11.099Z,3.47
2019-03-01T14:26:40.772Z,3.70
2019-03-01T14:29:12.799Z,3.20
2019-03-01T14:31:42.985Z,3.97
2019-03-01T14:34:13.527Z,3.50
2019-03-01T14:36:43.944Z,3.43
2019-03-01T14:39:16.291Z,3.30
2019-03-01T14:41:46.002Z,3.27
2019-03-01T14:44:15.760Z,3.17
2019-03-01T14:46:45.486Z,3.60
2019-03-01T14:49:15.165Z,3.70
2019-03-01T14:51:46.908Z,3.03
2019-03-01T14:54:16.519Z,3.40
2019-03-01T14:56:47.052Z,4.03
2019-03-01T14:59:38.345Z,3.63
2019-03-01T15:02:14.139Z,2.93
2019-03-01T15:04:44.299Z,3.03
2019-03-01T15:07:14.038Z,3.03
2019-03-01T15:09:43.838Z,3.40
2019-03-01T15:12:19.710Z,3.30
2019-03-01T15:14:49.595Z,3.73
2019-03-01T15:17:18.386Z,3.70
2019-03-01T15:19:48.208Z,2.90
2019-03-01T15:22:17.932Z,3.60
2019-03-01T15:24:47.834Z,3.20
2019-03-01T15:27:17.607Z,3.50
2019-03-01T15:29:47.302Z,3.80
2019-03-01T15:32:23.116Z,5.00
2019-03-01T15:34:52.838Z,4.17
2019-03-01T15:37:22.675Z,3.13
2019-03-01T15:39:54.324Z,3.27
2019-03-01T15:42:29.393Z,3.40
2019-03-01T15:45:01.714Z,3.40
2019-03-01T15:47:30.503Z,8.63
2019-03-01T15:50:00.295Z,6.27
2019-03-01T15:52:29.957Z,21.80
2019-03-01T15:54:59.718Z,15.00
2019-03-01T15:57:29.378Z,7.33
2019-03-01T16:00:08.123Z,4.57
2019-03-01T16:02:41.343Z,4.63
2019-03-01T16:05:12.850Z,3.20
2019-03-01T16:07:42.985Z,3.20
2019-03-01T16:10:20.745Z,3.90
2019-03-01T16:12:50.475Z,2.93
2019-03-01T16:15:20.200Z,3.00
2019-03-01T16:17:49.869Z,3.37
2019-03-01T16:20:21.602Z,3.10
2019-03-01T16:22:54.055Z,3.30
2019-03-01T16:25:22.753Z,2.93
2019-03-01T16:27:54.245Z,3.50
2019-03-01T16:30:23.917Z,3.60
2019-03-01T16:32:53.651Z,3.00
2019-03-01T16:35:23.451Z,3.17
2019-03-01T16:37:57.886Z,3.13
2019-03-01T16:40:26.331Z,3.73
2019-03-01T16:42:56.104Z,3.27
2019-03-01T16:45:26.031Z,2.87
2019-03-01T16:48:04.890Z,2.97
2019-03-01T16:50:34.562Z,3.20
2019-03-01T16:53:05.427Z,3.07
2019-03-01T16:55:35.208Z,2.93
2019-03-01T16:58:07.127Z,2.93
2019-03-01T17:00:36.311Z,3.80
2019-03-01T17:03:17.995Z,3.87
2019-03-01T17:05:47.596Z,4.37
2019-03-01T17:08:17.297Z,4.00
2019-03-01T17:10:46.968Z,4.73
2019-03-01T17:13:16.698Z,4.93
2019-03-01T17:15:48.512Z,4.10
2019-03-01T17:18:18.005Z,4.77
2019-03-01T17:20:47.742Z,3.20
2019-03-01T17:23:17.667Z,3.63
2019-03-01T17:25:47.755Z,4.17
2019-03-01T17:28:22.608Z,3.80
2019-03-01T17:30:50.697Z,3.53
2019-03-01T17:33:20.430Z,3.20
2019-03-01T17:38:33.873Z,3.00
2019-03-01T17:41:06.250Z,3.90
2019-03-01T17:43:35.932Z,8.40
2019-03-01T17:46:05.659Z,4.37
2019-03-01T17:48:35.476Z,4.60
2019-03-01T17:51:05.390Z,3.93
2019-03-01T17:53:35.076Z,4.73
2019-03-01T17:56:04.842Z,3.63
2019-03-01T17:58:34.570Z,3.63
2019-03-01T18:01:04.534Z,3.90
2019-03-01T18:03:34.188Z,3.80
2019-03-01T18:06:04.085Z,4.53
2019-03-01T18:08:35.874Z,3.93
2019-03-01T18:11:08.293Z,5.10
2019-03-01T18:13:36.771Z,4.60
2019-03-01T18:16:06.582Z,4.33
2019-03-01T18:18:36.409Z,3.57
2019-03-01T18:21:10.231Z,3.93
2019-03-01T18:23:39.497Z,3.83
2019-03-01T18:26:09.133Z,3.97
2019-03-01T18:28:38.964Z,3.70
2019-03-01T18:31:08.866Z,6.40
2019-03-01T18:33:38.697Z,3.73
2019-03-01T18:36:08.441Z,3.43
2019-03-01T18:38:38.230Z,3.60
2019-03-01T18:41:07.906Z,3.53
2019-03-01T18:43:37.832Z,3.53
2019-03-01T18:46:07.545Z,4.50
2019-03-01T18:48:40.636Z,3.73
2019-03-01T18:51:09.740Z,4.20
2019-03-01T18:53:39.572Z,4.20
2019-03-01T18:56:09.313Z,5.00
2019-03-01T18:58:39.083Z,3.83
2019-03-01T19:01:11.673Z,3.77
2019-03-01T19:03:41.593Z,3.40
2019-03-01T19:06:16.221Z,4.03
2019-03-01T19:08:44.336Z,4.93
2019-03-01T19:11:14.402Z,3.90
2019-03-01T19:13:44.178Z,4.37
2019-03-01T19:16:13.848Z,4.13
2019-03-01T19:18:43.571Z,4.40
2019-03-01T19:21:13.971Z,4.03
2019-03-01T19:23:44.819Z,4.17
2019-03-01T19:26:14.508Z,5.03
2019-03-01T19:28:44.223Z,3.80
2019-03-01T19:31:14.259Z,4.93
2019-03-01T19:33:44.421Z,4.23
2019-03-01T19:36:14.552Z,4.53
2019-03-01T19:38:46.409Z,4.87
2019-03-01T19:41:20.050Z,4.33
2019-03-01T19:43:54.873Z,4.67
2019-03-01T19:46:21.297Z,4.27
2019-03-01T19:48:51.399Z,4.47
2019-03-01T19:51:22.025Z,4.30
2019-03-01T19:53:52.018Z,4.63
2019-03-01T19:56:25.783Z,4.90
2019-03-01T19:58:54.767Z,5.13
2019-03-01T20:01:25.218Z,4.90
2019-03-01T20:03:57.053Z,4.63
2019-03-01T20:06:26.500Z,5.10
2019-03-01T20:08:56.294Z,4.97
2019-03-01T20:11:27.517Z,5.30
2019-03-01T20:13:57.396Z,4.80
2019-03-01T20:16:27.294Z,4.10
2019-03-01T20:18:57.340Z,5.00
2019-03-01T20:21:27.488Z,4.77
2019-03-01T20:24:01.832Z,5.13
2019-03-01T20:26:30.662Z,4.80
2019-03-01T20:29:00.383Z,5.13
2019-03-01T20:31:30.179Z,5.50
2019-03-01T20:34:01.814Z,4.53
2019-03-01T20:36:31.602Z,4.90
2019-03-01T20:39:01.394Z,4.73
2019-03-01T20:41:31.456Z,4.40
2019-03-01T20:44:01.505Z,4.63
2019-03-01T20:46:31.270Z,4.83
2019-03-01T20:49:03.873Z,5.23
2019-03-01T20:51:32.554Z,4.70
2019-03-01T20:54:02.373Z,5.10
2019-03-01T20:56:32.206Z,5.00
2019-03-01T20:59:01.954Z,5.57
2019-03-01T21:01:33.726Z,5.30
2019-03-01T21:04:04.869Z,6.63
2019-03-01T21:06:37.414Z,6.00
2019-03-01T21:09:06.989Z,5.63
2019-03-01T21:11:36.904Z,5.73
2019-03-01T21:14:06.641Z,6.17
2019-03-01T21:16:36.557Z,5.77
2019-03-01T21:19:08.827Z,5.70
2019-03-01T21:21:37.897Z,5.60
2019-03-01T21:24:10.837Z,6.10
2019-03-01T21:26:40.554Z,5.77
2019-03-01T21:29:12.437Z,5.70
2019-03-01T21:31:41.893Z,5.03
2019-03-01T21:34:11.599Z,5.27
2019-03-01T21:36:41.380Z,6.00
2019-03-01T21:39:11.388Z,5.23
2019-03-01T21:41:41.473Z,6.03
2019-03-01T21:44:13.626Z,6.00
2019-03-01T21:46:43.685Z,5.50
2019-03-01T21:49:13.577Z,5.43
2019-03-01T21:51:43.739Z,5.30
2019-03-01T21:54:16.487Z,5.73
2019-03-01T21:56:55.372Z,5.60
2019-03-01T21:59:18.561Z,5.67
2019-03-01T22:01:48.503Z,5.00
2019-03-01T22:04:18.148Z,5.27
2019-03-01T22:06:47.916Z,5.60
2019-03-01T22:09:20.642Z,5.00
2019-03-01T22:11:50.102Z,5.23
2019-03-01T22:14:19.804Z,5.50
2019-03-01T22:16:49.554Z,4.90
2019-03-01T22:19:19.225Z,5.47
2019-03-01T22:21:48.962Z,5.80
2019-03-01T22:24:18.599Z,5.67
2019-03-01T22:26:49.567Z,5.00
2019-03-01T22:29:20.170Z,5.57
2019-03-01T22:31:49.865Z,5.10
2019-03-01T22:34:19.811Z,4.97
2019-03-01T22:36:52.891Z,5.00
2019-03-01T22:39:21.010Z,5.30
2019-03-01T22:41:50.688Z,4.87
2019-03-01T22:44:20.501Z,5.83
2019-03-01T22:46:50.646Z,6.13
2019-03-01T22:49:20.373Z,6.33
2019-03-01T22:51:52.904Z,6.30
2019-03-01T22:54:21.604Z,5.83
2019-03-01T22:56:51.468Z,5.33
2019-03-01T22:59:21.156Z,5.80
2019-03-01T23:01:51.015Z,5.77
2019-03-01T23:04:20.866Z,5.50
2019-03-01T23:07:01.755Z,5.73
2019-03-01T23:09:33.966Z,5.90
2019-03-01T23:12:04.623Z,5.60
2019-03-01T23:14:35.174Z,5.73
2019-03-01T23:17:04.959Z,6.37
2019-03-01T23:19:36.262Z,5.70
2019-03-01T23:22:07.657Z,6.07
2019-03-01T23:24:43.375Z,5.40
2019-03-01T23:27:13.486Z,5.50
2019-03-01T23:29:43.227Z,6.10
2019-03-01T23:32:15.454Z,5.40
2019-03-01T23:34:44.485Z,6.03
2019-03-01T23:37:14.530Z,6.13
2019-03-01T23:39:44.622Z,5.73
2019-03-01T23:42:17.328Z,5.97
2019-03-01T23:44:46.284Z,5.30
2019-03-01T23:47:15.966Z,5.30
2019-03-01T23:49:45.661Z,5.70
2019-03-01T23:52:15.480Z,5.00
2019-03-01T23:54:45.767Z,6.03
2019-03-01T23:57:16.870Z,4.97
2019-03-01T23:59:46.846Z,5.73
